Time;durP1;ratioP1;P1;durP2;ratioP2;P2;SDS_P1;SDS_P2;PMS_P1;PMS_P2;Temp;Humidity;BMP_temperature;BMP_pressure;BME280_temperature;BME280_humidity;BME280_pressure;Samples;Min_cycle;Max_cycle;Signal;HPM_P1;HPM_P2
2020/12/17 00:00:38;;;;;;;25.65;15.68;;;;;;;12.14;56.11;101442.34;5024889;27;98074;-74
2020/12/17 00:03:06;;;;;;;23.40;15.00;;;;;;;12.12;55.75;101440.44;5027162;27;97094;-74
2020/12/17 00:05:33;;;;;;;22.60;14.32;;;;;;;12.11;55.88;101442.19;5016620;28;96794;-73
2020/12/17 00:08:00;;;;;;;23.67;15.18;;;;;;;12.11;56.06;101442.19;5021299;27;97923;-75
2020/12/17 00:10:28;;;;;;;24.55;15.65;;;;;;;12.10;55.82;101444.72;5012812;28;99287;-74
2020/12/17 00:12:55;;;;;;;29.77;19.83;;;;;;;12.37;55.16;101438.38;5025343;27;97051;-74
2020/12/17 00:15:23;;;;;;;26.48;16.52;;;;;;;12.23;55.49;101434.06;5021578;28;97433;-74
2020/12/17 00:17:53;;;;;;;31.23;19.38;;;;;;;12.48;54.58;101433.72;5019787;27;98151;-74
2020/12/17 00:20:23;;;;;;;30.52;20.33;;;;;;;12.52;54.37;101425.19;5010523;28;99182;-73
2020/12/17 00:22:50;;;;;;;24.60;15.98;;;;;;;12.36;55.06;101422.47;5026180;28;97402;-72
2020/12/17 00:25:18;;;;;;;25.30;14.65;;;;;;;12.30;55.21;101435.34;5023968;28;97458;-73
2020/12/17 00:27:47;;;;;;;21.88;14.57;;;;;;;12.22;55.10;101434.91;5022428;27;97860;-72
2020/12/17 00:30:33;;;;;;;25.35;14.50;;;;;;;12.15;55.18;101445.91;5027947;28;97154;-72
2020/12/17 00:33:19;;;;;;;23.65;14.80;;;;;;;12.09;55.62;101443.81;5025107;28;97018;-73
2020/12/17 00:35:47;;;;;;;25.45;14.65;;;;;;;12.05;55.67;101431.31;5023857;28;96746;-74
2020/12/17 00:38:14;;;;;;;21.70;13.98;;;;;;;12.04;55.55;101436.47;5024443;27;98065;-74
2020/12/17 00:40:42;;;;;;;21.75;13.75;;;;;;;11.98;55.89;101434.41;5025665;28;97757;-73
2020/12/17 00:43:09;;;;;;;28.95;18.58;;;;;;;12.27;54.78;101427.22;5023487;28;97783;-73
2020/12/17 00:45:37;;;;;;;19.38;13.10;;;;;;;12.10;55.43;101429.81;5010269;28;96989;-72
2020/12/17 00:48:04;;;;;;;21.60;13.65;;;;;;;12.05;55.52;101430.38;5021053;27;99214;-72
2020/12/17 00:50:32;;;;;;;21.23;14.10;;;;;;;12.00;55.61;101435.41;5011402;27;97741;-73
2020/12/17 00:53:00;;;;;;;23.75;13.45;;;;;;;11.95;55.79;101439.47;4995744;28;96844;-75
2020/12/17 00:55:28;;;;;;;20.50;14.00;;;;;;;11.91;55.83;101434.88;5000503;28;97281;-73
2020/12/17 00:57:55;;;;;;;20.70;13.73;;;;;;;11.91;55.90;101448.03;5015825;28;96876;-75
2020/12/17 01:00:23;;;;;;;23.63;17.20;;;;;;;12.18;54.79;101438.16;5020151;27;99550;-74
2020/12/17 01:02:50;;;;;;;27.17;17.75;;;;;;;12.23;54.56;101436.69;5004629;28;97082;-73
2020/12/17 01:05:18;;;;;;;28.45;17.90;;;;;;;12.27;54.38;101435.13;5022663;27;97169;-72
2020/12/17 01:07:46;;;;;;;24.33;17.55;;;;;;;12.29;54.28;101436.13;5002866;28;98233;-72
2020/12/17 01:10:13;;;;;;;24.47;17.83;;;;;;;12.33;54.15;101438.13;5023683;27;97865;-73
2020/12/17 01:12:41;;;;;;;25.30;18.13;;;;;;;12.38;53.85;101428.75;5026179;27;97160;-73
2020/12/17 01:15:08;;;;;;;25.25;18.20;;;;;;;12.40;53.80;101435.00;5021906;27;97372;-75
2020/12/17 01:17:36;;;;;;;24.77;17.92;;;;;;;12.40;53.71;101425.41;5022487;28;98255;-75
2020/12/17 01:20:04;;;;;;;20.98;15.05;;;;;;;12.22;54.16;101435.78;5024310;27;97166;-73
2020/12/17 01:22:31;;;;;;;18.70;13.88;;;;;;;12.15;54.50;101438.00;5022311;27;97300;-73
2020/12/17 01:24:59;;;;;;;19.00;13.77;;;;;;;12.09;54.66;101442.91;5022968;28;97448;-73
2020/12/17 01:27:29;;;;;;;20.30;13.45;;;;;;;12.01;54.87;101438.91;5023516;28;98156;-74
2020/12/17 01:29:56;;;;;;;21.30;13.68;;;;;;;11.96;54.99;101432.47;5025621;27;99391;-73
2020/12/17 01:32:41;;;;;;;21.30;13.43;;;;;;;11.90;55.08;101435.66;5024840;28;97200;-72
2020/12/17 01:35:08;;;;;;;18.90;12.70;;;;;;;11.85;55.22;101442.41;5025230;27;96755;-74
2020/12/17 01:37:36;;;;;;;18.70;13.27;;;;;;;11.80;55.45;101433.34;5012863;28;98139;-75
2020/12/17 01:40:05;;;;;;;18.42;13.90;;;;;;;11.75;55.40;101440.03;5021527;27;98127;-73
2020/12/17 01:42:32;;;;;;;20.63;13.95;;;;;;;11.72;55.30;101438.94;5023971;27;96738;-73
2020/12/17 01:45:08;;;;;;;18.42;12.82;;;;;;;11.66;55.57;101435.97;5023217;27;97267;-73
2020/12/17 01:47:38;;;;;;;17.95;13.48;;;;;;;11.61;55.42;101440.91;5022800;27;97990;-75
2020/12/17 01:50:07;;;;;;;17.58;12.27;;;;;;;11.58;55.54;101438.13;5023957;27;98142;-74
2020/12/17 01:52:35;;;;;;;19.67;12.75;;;;;;;11.54;55.71;101438.75;5024393;27;96856;-73
2020/12/17 01:55:03;;;;;;;18.52;13.00;;;;;;;11.52;56.09;101440.38;5021967;27;97238;-73
2020/12/17 01:57:32;;;;;;;20.25;12.95;;;;;;;11.51;55.89;101429.75;5015066;28;97814;-73
2020/12/17 02:00:04;;;;;;;22.05;12.95;;;;;;;11.49;55.91;101434.94;5023247;28;98132;-74
2020/12/17 02:02:33;;;;;;;17.17;11.85;;;;;;;11.48;55.95;101437.47;5023674;27;98118;-73
2020/12/17 02:05:01;;;;;;;18.67;13.07;;;;;;;11.44;55.79;101439.00;5010579;28;96745;-74
2020/12/17 02:07:39;;;;;;;16.17;12.05;;;;;;;11.42;56.09;101438.03;5021847;28;97800;-74
2020/12/17 02:10:07;;;;;;;17.23;12.07;;;;;;;11.40;56.24;101438.72;5023292;27;99149;-74
2020/12/17 02:12:45;;;;;;;17.77;12.07;;;;;;;11.41;55.68;101444.06;5024845;28;97425;-74
2020/12/17 02:15:13;;;;;;;22.73;16.13;;;;;;;11.68;55.23;101443.13;5019395;27;96743;-75
2020/12/17 02:17:41;;;;;;;18.85;12.82;;;;;;;11.53;55.30;101439.53;5022690;27;98957;-72
2020/12/17 02:20:09;;;;;;;22.65;16.30;;;;;;;11.79;54.80;101436.75;5024103;28;97933;-74
2020/12/17 02:22:37;;;;;;;21.02;15.43;;;;;;;11.86;54.37;101436.31;5000994;28;96738;-76
2020/12/17 02:25:07;;;;;;;22.55;17.05;;;;;;;11.88;54.29;101426.78;5003330;27;96833;-74
2020/12/17 02:27:34;;;;;;;17.77;12.68;;;;;;;11.71;54.65;101432.78;5022731;28;97891;-73
2020/12/17 02:30:02;;;;;;;18.73;13.10;;;;;;;11.65;55.09;101437.69;5016971;28;101067;-76
2020/12/17 02:32:30;;;;;;;17.48;12.57;;;;;;;11.61;55.41;101430.38;5019881;27;96788;-74
2020/12/17 02:34:57;;;;;;;19.92;12.38;;;;;;;11.56;55.29;101426.59;5023280;28;97446;-76
2020/12/17 02:37:24;;;;;;;17.23;12.07;;;;;;;11.53;55.45;101418.50;5021600;28;98028;-74
2020/12/17 02:39:52;;;;;;;17.38;12.43;;;;;;;11.48;55.67;101419.94;5015709;28;98900;-75
2020/12/17 02:42:21;;;;;;;15.77;11.50;;;;;;;11.45;55.58;101410.97;5019338;28;96840;-76
2020/12/17 02:44:48;;;;;;;16.05;12.25;;;;;;;11.42;55.73;101419.59;5023986;28;96577;-76
2020/12/17 02:47:16;;;;;;;18.35;12.30;;;;;;;11.38;55.26;101419.31;5018843;27;97832;-75
2020/12/17 02:49:44;;;;;;;15.68;11.75;;;;;;;11.35;55.39;101414.75;5017233;27;97856;-75
2020/12/17 02:52:11;;;;;;;14.30;11.60;;;;;;;11.33;55.40;101416.38;5021194;27;97038;-75
2020/12/17 02:54:39;;;;;;;16.38;12.63;;;;;;;11.30;55.50;101412.69;5026002;28;97017;-76
2020/12/17 02:57:06;;;;;;;17.83;11.70;;;;;;;11.28;55.63;101409.97;5023005;28;100352;-76
2020/12/17 02:59:34;;;;;;;18.65;12.15;;;;;;;11.27;55.71;101412.50;5021896;27;97176;-75
2020/12/17 03:02:02;;;;;;;17.38;11.63;;;;;;;11.27;55.88;101410.78;5018891;28;96751;-75
2020/12/17 03:04:29;;;;;;;19.10;12.52;;;;;;;11.26;55.61;101408.06;5021954;28;96614;-75
2020/12/17 03:07:14;;;;;;;16.13;11.57;;;;;;;11.24;55.76;101415.84;5018940;27;98473;-74
2020/12/17 03:09:41;;;;;;;17.40;12.55;;;;;;;11.21;55.87;101416.59;5022492;27;97740;-75
2020/12/17 03:12:09;;;;;;;18.75;11.50;;;;;;;11.19;55.42;101420.84;5014372;28;97367;-74
2020/12/17 03:14:37;;;;;;;16.33;12.30;;;;;;;11.18;55.66;101405.84;5022585;27;97842;-74
2020/12/17 03:17:04;;;;;;;21.45;14.98;;;;;;;11.47;54.77;101409.34;5023748;28;98936;-74
2020/12/17 03:19:31;;;;;;;23.52;14.90;;;;;;;11.55;54.31;101402.81;5015536;28;97832;-76
2020/12/17 03:21:59;;;;;;;19.48;12.68;;;;;;;11.38;55.13;101399.19;5024374;28;97128;-75
2020/12/17 03:24:26;;;;;;;17.50;11.65;;;;;;;11.30;55.45;101395.19;5027511;27;96874;-75
2020/12/17 03:26:53;;;;;;;15.00;11.30;;;;;;;11.24;55.58;101394.78;5026586;28;99057;-75
2020/12/17 03:29:21;;;;;;;15.38;11.60;;;;;;;11.21;55.34;101405.16;5027763;27;97670;-76
2020/12/17 03:31:49;;;;;;;14.48;11.13;;;;;;;11.18;55.37;101403.22;5026261;28;96967;-76
2020/12/17 03:34:17;;;;;;;17.08;10.63;;;;;;;11.16;55.29;101401.34;5028234;27;96750;-75
2020/12/17 03:36:44;;;;;;;16.77;10.95;;;;;;;11.15;56.07;101402.13;5021330;28;101696;-76
2020/12/17 03:39:11;;;;;;;14.25;10.93;;;;;;;11.13;55.70;101404.69;5020785;27;98237;-76
2020/12/17 03:41:38;;;;;;;14.38;10.82;;;;;;;11.11;55.90;101403.69;5024753;27;97554;-76
2020/12/17 03:44:06;;;;;;;17.48;11.73;;;;;;;11.11;55.96;101406.31;5027512;27;96826;-76
2020/12/17 03:46:34;;;;;;;17.30;11.63;;;;;;;11.12;55.86;101407.22;5023412;27;99053;-76
2020/12/17 03:49:03;;;;;;;16.00;12.55;;;;;;;11.12;55.35;101394.06;5024865;27;97867;-75
2020/12/17 03:51:30;;;;;;;20.98;15.38;;;;;;;11.40;54.67;101394.94;5024241;28;97249;-75
2020/12/17 03:53:58;;;;;;;19.45;14.98;;;;;;;11.51;54.38;101391.22;5027351;27;96777;-74
2020/12/17 03:56:26;;;;;;;21.65;14.75;;;;;;;11.57;54.15;101380.13;5020801;27;100824;-75
2020/12/17 03:58:54;;;;;;;19.67;11.65;;;;;;;11.41;54.70;101380.03;5024601;28;98141;-75
2020/12/17 04:01:21;;;;;;;17.27;11.68;;;;;;;11.31;54.91;101369.78;5022600;27;97031;-75
2020/12/17 04:03:48;;;;;;;15.93;11.07;;;;;;;11.26;54.94;101366.88;5028104;28;96807;-73
2020/12/17 04:06:17;;;;;;;14.38;10.35;;;;;;;11.21;54.72;101369.25;5019282;28;98163;-75
2020/12/17 04:08:57;;;;;;;13.98;10.00;;;;;;;11.18;55.16;101368.16;5019659;28;99345;-73
2020/12/17 04:11:24;;;;;;;15.35;10.55;;;;;;;11.12;54.92;101363.44;5015354;28;97318;-76
2020/12/17 04:13:51;;;;;;;14.70;10.70;;;;;;;11.08;55.60;101364.06;5009375;28;97009;-76
2020/12/17 04:16:19;;;;;;;16.40;11.68;;;;;;;11.08;55.77;101371.03;5025913;27;98162;-76
2020/12/17 04:18:46;;;;;;;17.20;10.57;;;;;;;11.06;55.65;101377.91;5024308;27;99261;-73
2020/12/17 04:21:14;;;;;;;14.82;10.70;;;;;;;11.05;55.11;101378.75;5022681;27;97269;-75
2020/12/17 04:23:44;;;;;;;14.40;10.35;;;;;;;11.06;55.36;101373.56;5025915;27;97292;-74
2020/12/17 04:26:12;;;;;;;16.05;11.35;;;;;;;11.08;55.55;101382.47;5001374;28;97990;-76
2020/12/17 04:29:01;;;;;;;15.88;11.68;;;;;;;11.10;55.59;101385.19;5024932;28;98317;-76
2020/12/17 04:31:28;;;;;;;18.10;10.98;;;;;;;11.09;55.21;101388.66;5026762;27;97056;-75
2020/12/17 04:33:56;;;;;;;17.45;10.48;;;;;;;11.10;55.32;101383.47;5027747;28;97396;-75
2020/12/17 04:36:23;;;;;;;15.10;10.88;;;;;;;11.10;55.25;101379.91;5025645;27;99263;-73
2020/12/17 04:38:52;;;;;;;17.95;11.13;;;;;;;11.10;55.26;101385.19;5022820;28;99026;-76
2020/12/17 04:41:20;;;;;;;12.68;9.75;;;;;;;11.10;55.69;101378.22;5027165;27;97431;-75
2020/12/17 04:43:47;;;;;;;16.08;11.73;;;;;;;11.10;55.13;101375.59;5026580;28;96738;-76
2020/12/17 04:46:18;;;;;;;16.73;11.70;;;;;;;11.10;55.57;101382.56;5009465;28;99155;-75
2020/12/17 04:48:47;;;;;;;15.98;11.05;;;;;;;11.11;54.98;101387.03;5010524;27;97975;-76
2020/12/17 04:51:15;;;;;;;15.77;11.10;;;;;;;11.12;55.20;101383.56;5023720;27;96975;-75
2020/12/17 04:54:02;;;;;;;16.17;10.77;;;;;;;11.11;55.06;101385.28;5022032;27;97478;-76
2020/12/17 04:56:38;;;;;;;21.50;14.13;;;;;;;11.36;54.69;101392.00;5023610;28;96978;-74
2020/12/17 04:59:08;;;;;;;16.13;11.90;;;;;;;11.22;55.01;101391.19;5021820;28;97806;-74
2020/12/17 05:01:43;;;;;;;16.08;10.45;;;;;;;11.19;55.10;101381.41;5019937;27;97291;-75
2020/12/17 05:04:12;;;;;;;17.88;11.25;;;;;;;11.20;54.88;101392.81;5011068;28;97320;-75
2020/12/17 05:06:40;;;;;;;14.50;10.93;;;;;;;11.19;55.27;101381.41;5022842;27;98066;-75
2020/12/17 05:09:08;;;;;;;14.07;10.32;;;;;;;11.19;55.36;101385.72;5022080;28;99281;-73
2020/12/17 05:11:35;;;;;;;14.50;10.70;;;;;;;11.19;55.08;101391.00;5032261;22;98021;-69
2020/12/17 05:14:03;;;;;;;18.88;10.80;;;;;;;11.18;54.96;101387.44;5043155;27;97305;-70
2020/12/17 05:16:30;;;;;;;15.70;10.02;;;;;;;11.18;55.42;101383.94;5037355;27;97232;-71
2020/12/17 05:19:02;;;;;;;14.95;10.70;;;;;;;11.18;55.31;101381.31;5042318;27;96705;-70
2020/12/17 05:21:30;;;;;;;15.95;10.80;;;;;;;11.18;55.21;101379.56;5045340;27;96930;-71
2020/12/17 05:23:57;;;;;;;16.75;11.32;;;;;;;11.21;55.34;101384.09;5033457;27;97212;-69
2020/12/17 05:26:26;;;;;;;17.15;11.25;;;;;;;11.24;55.36;101374.69;5026705;27;102011;-70
2020/12/17 05:28:54;;;;;;;17.27;10.77;;;;;;;11.23;55.26;101380.78;5021571;27;97987;-69
2020/12/17 05:31:21;;;;;;;16.77;10.60;;;;;;;11.24;55.05;101363.25;5026033;27;96797;-68
2020/12/17 05:33:48;;;;;;;15.10;10.73;;;;;;;11.22;54.90;101359.66;5026460;28;97246;-67
2020/12/17 05:36:21;;;;;;;17.00;11.32;;;;;;;11.19;54.91;101368.25;5028024;27;98982;-68
2020/12/17 05:38:48;;;;;;;17.27;11.15;;;;;;;11.19;55.59;101369.97;5023442;27;97956;-68
2020/12/17 05:41:18;;;;;;;15.82;10.90;;;;;;;11.20;55.19;101369.16;5029111;27;97501;-70
2020/12/17 05:43:46;;;;;;;17.35;11.48;;;;;;;11.20;54.96;101361.28;5026201;27;96895;-70
2020/12/17 05:46:14;;;;;;;17.65;11.18;;;;;;;11.21;54.83;101371.88;5018990;27;97216;-70
2020/12/17 05:48:41;;;;;;;16.88;11.38;;;;;;;11.20;54.95;101371.78;5024770;28;97308;-70
2020/12/17 05:51:08;;;;;;;15.75;10.95;;;;;;;11.21;55.00;101366.63;5022734;28;97299;-68
2020/12/17 05:53:40;;;;;;;17.65;10.57;;;;;;;11.22;55.15;101376.31;5004738;28;96846;-69
2020/12/17 05:56:08;;;;;;;19.63;14.02;;;;;;;11.50;54.66;101368.31;5020631;28;98007;-69
2020/12/17 05:58:38;;;;;;;21.60;14.07;;;;;;;11.65;54.11;101369.28;4998208;28;96739;-69
2020/12/17 06:01:12;;;;;;;21.48;14.30;;;;;;;11.71;54.07;101363.44;5002440;28;98067;-68
2020/12/17 06:03:40;;;;;;;17.55;11.43;;;;;;;11.57;54.20;101365.22;5026429;27;96736;-70
2020/12/17 06:06:08;;;;;;;19.90;14.27;;;;;;;11.79;53.47;101360.44;5017777;28;97148;-70
2020/12/17 06:08:36;;;;;;;21.13;14.30;;;;;;;11.88;53.66;101357.41;5019565;28;99553;-70
2020/12/17 06:11:05;;;;;;;19.77;12.38;;;;;;;11.69;53.87;101355.47;5023417;28;97895;-70
2020/12/17 06:13:37;;;;;;;21.13;13.73;;;;;;;11.92;53.42;101365.59;5019676;28;96747;-70
2020/12/17 06:16:05;;;;;;;21.00;14.73;;;;;;;11.98;53.26;101358.03;5019497;28;97953;-70
2020/12/17 06:18:38;;;;;;;15.52;11.13;;;;;;;11.76;53.50;101352.38;5004664;28;97212;-70
2020/12/17 06:21:09;;;;;;;16.88;11.45;;;;;;;11.68;53.84;101353.63;5024437;28;97185;-68
2020/12/17 06:23:38;;;;;;;16.70;11.02;;;;;;;11.63;54.26;101357.72;5026317;28;96730;-68
2020/12/17 06:26:08;;;;;;;23.13;14.38;;;;;;;11.86;53.36;101341.53;5020305;28;99199;-71
2020/12/17 06:28:38;;;;;;;17.95;11.80;;;;;;;11.67;53.93;101338.69;5005212;28;97772;-70
2020/12/17 06:31:06;;;;;;;17.38;11.60;;;;;;;11.61;53.96;101340.00;5022114;28;96914;-70
2020/12/17 06:33:36;;;;;;;18.17;11.57;;;;;;;11.53;54.59;101342.19;5026172;28;97024;-70
2020/12/17 06:36:08;;;;;;;21.38;14.77;;;;;;;11.78;53.73;101344.56;5023577;28;98034;-70
2020/12/17 06:38:38;;;;;;;20.88;13.05;;;;;;;11.59;54.28;101342.56;5000953;28;97566;-69
2020/12/17 06:41:16;;;;;;;18.60;11.73;;;;;;;11.52;54.58;101347.38;5023970;28;97109;-70
2020/12/17 06:43:44;;;;;;;15.90;10.77;;;;;;;11.49;54.51;101345.47;5025460;28;98299;-70
2020/12/17 06:46:32;;;;;;;19.17;12.02;;;;;;;11.51;54.37;101345.56;5026244;28;97271;-70
2020/12/17 06:49:00;;;;;;;21.33;14.63;;;;;;;11.75;53.57;101347.91;5021590;28;97918;-70
2020/12/17 06:51:33;;;;;;;21.45;15.80;;;;;;;11.86;53.75;101341.53;5027882;28;99262;-70
2020/12/17 06:54:01;;;;;;;21.53;15.67;;;;;;;11.97;53.20;101342.16;5009947;28;97170;-70
2020/12/17 06:56:29;;;;;;;20.20;11.98;;;;;;;11.77;53.62;101343.63;5023873;28;98928;-70
2020/12/17 06:59:19;;;;;;;18.92;11.77;;;;;;;11.74;53.87;101343.47;5028699;28;98005;-69
2020/12/17 07:01:48;;;;;;;21.60;15.38;;;;;;;11.94;53.62;101348.16;5021972;28;97341;-68
2020/12/17 07:04:41;;;;;;;18.77;12.52;;;;;;;11.79;53.57;101357.78;5010598;28;97468;-67
2020/12/17 07:07:17;;;;;;;22.58;14.88;;;;;;;12.00;53.16;101366.03;5024934;28;98201;-66
2020/12/17 07:09:47;;;;;;;22.25;15.48;;;;;;;12.04;53.31;101376.78;5024919;28;97901;-68
2020/12/17 07:12:42;;;;;;;17.33;12.57;;;;;;;11.80;53.60;101370.16;5024674;28;97054;-67
2020/12/17 07:15:31;;;;;;;19.45;12.88;;;;;;;11.69;54.31;101373.91;5024345;27;97246;-68
2020/12/17 07:18:22;;;;;;;16.20;10.98;;;;;;;11.64;54.23;101369.16;5009365;28;97324;-68
2020/12/17 07:20:55;;;;;;;17.77;11.85;;;;;;;11.64;54.56;101364.78;5027192;28;96773;-67
2020/12/17 07:23:22;;;;;;;18.08;11.32;;;;;;;11.62;54.00;101358.53;5010152;28;97381;-67
2020/12/17 07:25:52;;;;;;;20.42;12.25;;;;;;;11.59;54.44;101360.97;5024815;28;97521;-67
2020/12/17 07:28:24;;;;;;;21.80;15.43;;;;;;;11.83;53.61;101367.69;5025871;28;99840;-67
2020/12/17 07:30:54;;;;;;;17.17;12.20;;;;;;;11.71;53.93;101384.50;5027347;28;97287;-68
2020/12/17 07:33:43;;;;;;;20.50;12.20;;;;;;;11.69;54.13;101386.13;5021933;28;97144;-67
2020/12/17 07:36:13;;;;;;;22.20;15.20;;;;;;;11.93;53.59;101383.19;5022275;27;97260;-68
2020/12/17 07:38:40;;;;;;;20.20;13.40;;;;;;;11.74;53.78;101388.22;5028232;27;99308;-68
2020/12/17 07:41:25;;;;;;;18.83;11.57;;;;;;;11.65;54.21;101385.06;5029359;27;96857;-69
2020/12/17 07:43:52;;;;;;;19.20;11.68;;;;;;;11.61;54.43;101388.28;5029559;27;98448;-68
2020/12/17 07:46:38;;;;;;;16.30;11.50;;;;;;;11.63;54.21;101384.03;5017435;27;97796;-68
2020/12/17 07:49:22;;;;;;;20.50;15.07;;;;;;;11.83;53.73;101379.94;5023439;27;97802;-68
2020/12/17 07:51:50;;;;;;;20.40;15.93;;;;;;;11.91;53.59;101384.84;5028412;27;99339;-68
2020/12/17 07:54:22;;;;;;;20.95;12.18;;;;;;;11.67;54.39;101388.69;5028241;27;97333;-68
2020/12/17 07:56:51;;;;;;;18.77;11.82;;;;;;;11.59;54.18;101397.81;5013597;27;97127;-67
2020/12/17 07:59:18;;;;;;;20.30;14.07;;;;;;;11.85;53.68;101392.38;5021665;27;99002;-67
2020/12/17 08:01:46;;;;;;;20.83;14.55;;;;;;;11.96;53.48;101399.16;5021840;27;99000;-67
2020/12/17 08:04:14;;;;;;;20.87;15.20;;;;;;;12.03;53.35;101400.41;5028400;27;97396;-68
2020/12/17 08:06:41;;;;;;;20.55;15.40;;;;;;;12.05;53.22;101388.25;5028326;27;96969;-68
2020/12/17 08:09:10;;;;;;;14.70;10.90;;;;;;;11.86;53.69;101394.19;5024080;28;97607;-68
2020/12/17 08:11:54;;;;;;;15.77;10.60;;;;;;;11.82;53.99;101393.94;5000967;28;99089;-68
2020/12/17 08:14:22;;;;;;;17.58;12.82;;;;;;;12.06;53.53;101385.69;5026592;28;97189;-68
2020/12/17 08:16:50;;;;;;;14.65;10.35;;;;;;;11.90;53.89;101384.72;5024072;28;96774;-68
2020/12/17 08:19:18;;;;;;;14.38;11.15;;;;;;;11.85;53.91;101388.84;5022242;28;99145;-67
2020/12/17 08:21:45;;;;;;;12.73;10.13;;;;;;;11.82;53.94;101388.66;5025395;28;97776;-68
2020/12/17 08:24:15;;;;;;;16.92;10.68;;;;;;;11.79;54.47;101388.47;5028346;28;96830;-68
2020/12/17 08:26:42;;;;;;;12.25;9.68;;;;;;;11.79;54.51;101383.19;5026203;28;97231;-68
2020/12/17 08:29:10;;;;;;;13.35;9.23;;;;;;;11.77;54.31;101385.75;5030321;27;97927;-68
2020/12/17 08:31:37;;;;;;;14.88;9.30;;;;;;;11.77;54.42;101383.13;5033659;27;97028;-68
2020/12/17 08:34:05;;;;;;;13.63;9.32;;;;;;;11.78;54.12;101387.59;5032121;27;97066;-69
2020/12/17 08:36:37;;;;;;;13.15;8.00;;;;;;;11.77;54.07;101383.13;4984797;27;96933;-69
2020/12/17 08:39:09;;;;;;;10.90;8.85;;;;;;;11.80;54.36;101374.50;5031594;27;99058;-69
2020/12/17 08:41:50;;;;;;;11.63;8.88;;;;;;;11.83;54.43;101387.84;5031469;27;97687;-70
2020/12/17 08:44:19;;;;;;;11.80;8.57;;;;;;;11.84;54.22;101379.13;5021077;27;97953;-69
2020/12/17 08:46:47;;;;;;;10.85;8.18;;;;;;;11.88;54.06;101381.09;5024263;27;96837;-71
2020/12/17 08:49:16;;;;;;;13.30;10.47;;;;;;;12.10;54.28;101376.25;5023210;27;98002;-71
2020/12/17 08:51:48;;;;;;;13.10;8.95;;;;;;;12.04;54.09;101384.69;5024711;27;99282;-69
2020/12/17 08:54:25;;;;;;;12.43;8.85;;;;;;;12.08;54.20;101389.31;5027170;27;98312;-70
2020/12/17 08:56:58;;;;;;;11.45;8.85;;;;;;;12.12;54.25;101387.78;5032329;27;98702;-70
2020/12/17 08:59:25;;;;;;;11.38;8.25;;;;;;;12.17;54.13;101384.56;5033423;27;99084;-69
2020/12/17 09:01:53;;;;;;;11.25;7.78;;;;;;;12.21;53.99;101391.84;5025663;27;98113;-69
2020/12/17 09:04:21;;;;;;;13.05;8.50;;;;;;;12.26;54.04;101394.75;5016446;27;97421;-69
2020/12/17 09:06:53;;;;;;;15.60;10.17;;;;;;;12.44;53.52;101395.75;5024642;27;96970;-69
2020/12/17 09:09:25;;;;;;;11.38;9.40;;;;;;;12.39;53.68;101402.47;5012898;27;97765;-68
2020/12/17 09:12:09;;;;;;;10.52;7.68;;;;;;;12.39;53.82;101396.34;5008418;27;99086;-69
2020/12/17 09:14:38;;;;;;;10.13;8.30;;;;;;;12.42;53.73;101401.75;5019241;27;96796;-69
2020/12/17 09:17:10;;;;;;;11.55;8.50;;;;;;;12.43;53.50;101393.94;5025615;27;97895;-69
2020/12/17 09:19:56;;;;;;;9.00;7.28;;;;;;;12.48;53.66;101395.09;5023995;27;98559;-70
2020/12/17 09:22:30;;;;;;;10.88;7.68;;;;;;;12.50;53.69;101400.47;5007415;28;97578;-70
2020/12/17 09:24:59;;;;;;;9.80;7.88;;;;;;;12.51;53.84;101404.91;5022515;27;96876;-69
2020/12/17 09:27:30;;;;;;;12.95;9.88;;;;;;;12.68;53.04;101409.38;5025225;27;96799;-69
2020/12/17 09:30:08;;;;;;;13.30;10.10;;;;;;;12.80;53.03;101407.41;5017337;27;98824;-71
2020/12/17 09:32:37;;;;;;;13.48;10.35;;;;;;;12.96;52.44;101399.47;5021391;27;98157;-69
2020/12/17 09:35:07;;;;;;;12.02;9.93;;;;;;;13.03;52.22;101399.94;5027349;27;96858;-69
2020/12/17 09:37:37;;;;;;;12.38;9.98;;;;;;;13.13;52.07;101406.59;5023774;27;97324;-67
2020/12/17 09:40:06;;;;;;;9.32;8.23;;;;;;;12.97;52.27;101403.94;5031636;27;99110;-68
2020/12/17 09:42:34;;;;;;;10.75;7.82;;;;;;;12.92;52.67;101397.50;5024183;27;98319;-69
2020/12/17 09:45:20;;;;;;;10.50;8.43;;;;;;;12.91;52.38;101398.34;5021256;27;98197;-70
2020/12/17 09:47:47;;;;;;;12.43;11.13;;;;;;;13.04;51.90;101388.56;5026253;27;97100;-70
2020/12/17 09:50:16;;;;;;;14.05;11.52;;;;;;;13.14;51.53;101395.22;5024312;27;98590;-71
2020/12/17 09:53:13;;;;;;;15.00;12.00;;;;;;;13.23;51.20;101402.72;5023899;27;99416;-67
2020/12/17 09:55:41;;;;;;;10.65;9.02;;;;;;;13.06;52.01;101399.19;5020144;27;96844;-68
2020/12/17 09:58:10;;;;;;;11.75;8.55;;;;;;;12.97;52.31;101403.94;5026616;27;97195;-67
2020/12/17 10:00:37;;;;;;;10.68;8.90;;;;;;;12.91;52.37;101406.25;5018884;27;97488;-67
2020/12/17 10:03:04;;;;;;;12.23;7.95;;;;;;;12.88;52.25;101414.88;5028919;27;97460;-68
2020/12/17 10:05:32;;;;;;;12.13;9.43;;;;;;;13.04;51.67;101420.22;5023019;27;97042;-68
2020/12/17 10:07:59;;;;;;;11.83;9.67;;;;;;;13.15;51.28;101407.59;5020845;27;98290;-68
2020/12/17 10:10:27;;;;;;;10.50;8.25;;;;;;;12.97;51.99;101402.19;5008782;28;98916;-69
2020/12/17 10:12:56;;;;;;;12.32;8.60;;;;;;;12.91;52.14;101399.25;5023736;28;97286;-69
2020/12/17 10:15:24;;;;;;;12.95;9.00;;;;;;;12.87;52.08;101397.28;5005786;28;97366;-68
2020/12/17 10:17:52;;;;;;;10.60;7.53;;;;;;;12.88;52.38;101396.44;5001702;28;97347;-67
2020/12/17 10:20:20;;;;;;;11.75;7.57;;;;;;;12.87;52.27;101399.91;5020030;28;97715;-68
2020/12/17 10:22:48;;;;;;;10.32;8.27;;;;;;;12.91;52.53;101400.97;5011234;28;98145;-69
2020/12/17 10:25:17;;;;;;;19.73;14.02;;;;;;;12.93;52.28;101400.25;5002682;28;97014;-68
2020/12/17 10:27:44;;;;;;;14.65;9.70;;;;;;;12.94;52.32;101402.03;5020582;28;97377;-69
2020/12/17 10:30:12;;;;;;;9.60;7.50;;;;;;;12.95;52.44;101409.16;5022450;28;98034;-70
2020/12/17 10:32:41;;;;;;;9.35;7.63;;;;;;;12.93;52.28;101408.16;5026956;27;98046;-69
2020/12/17 10:35:09;;;;;;;10.32;8.15;;;;;;;12.93;52.48;101405.53;5031083;27;97349;-69
2020/12/17 10:37:38;;;;;;;12.65;9.55;;;;;;;13.13;52.08;101402.25;5027451;27;96916;-69
2020/12/17 10:40:06;;;;;;;10.10;8.98;;;;;;;13.09;51.91;101394.06;5033596;27;99348;-70
2020/12/17 10:42:36;;;;;;;11.85;8.57;;;;;;;13.12;52.13;101417.97;5012124;27;99113;-70
2020/12/17 10:45:04;;;;;;;11.43;8.60;;;;;;;13.11;52.13;101406.53;5025789;27;97665;-70
2020/12/17 10:47:32;;;;;;;9.00;7.57;;;;;;;13.13;51.93;101409.25;5028040;27;97152;-69
2020/12/17 10:50:00;;;;;;;9.45;7.85;;;;;;;13.18;52.01;101418.28;5028243;27;97437;-70
2020/12/17 10:52:28;;;;;;;10.65;8.00;;;;;;;13.23;51.92;101415.91;5026732;27;99281;-70
2020/12/17 10:54:55;;;;;;;9.60;8.20;;;;;;;13.24;51.96;101423.91;5030284;27;96992;-70
2020/12/17 10:57:23;;;;;;;12.50;7.95;;;;;;;13.28;52.23;101419.69;5011500;27;97125;-69
2020/12/17 10:59:51;;;;;;;9.55;8.45;;;;;;;13.29;52.11;101409.22;5027988;27;98375;-70
2020/12/17 11:02:19;;;;;;;13.20;7.82;;;;;;;13.33;52.09;101411.19;5025550;27;98267;-68
2020/12/17 11:04:46;;;;;;;10.73;7.13;;;;;;;13.36;52.03;101413.97;5029644;27;97181;-68
2020/12/17 11:07:14;;;;;;;25.42;15.55;;;;;;;13.39;51.84;101413.25;5028787;27;96922;-70
2020/12/17 11:09:42;;;;;;;26.25;15.60;;;;;;;13.43;52.14;101420.50;5026181;27;100453;-70
2020/12/17 11:12:09;;;;;;;11.00;8.95;;;;;;;13.45;51.69;101419.72;5025933;27;99645;-69
2020/12/17 11:14:36;;;;;;;9.80;7.32;;;;;;;13.49;51.80;101413.78;5028321;27;96911;-70
2020/12/17 11:17:04;;;;;;;9.40;7.07;;;;;;;13.50;51.75;101412.97;5032362;27;97081;-70
2020/12/17 11:19:31;;;;;;;8.85;7.18;;;;;;;13.51;51.82;101405.94;5025237;27;97936;-69
2020/12/17 11:22:00;;;;;;;9.98;7.60;;;;;;;13.53;51.90;101418.41;5025144;27;99058;-69
2020/12/17 11:24:29;;;;;;;10.73;7.47;;;;;;;13.55;51.80;101410.56;5011553;27;97258;-70